createdAt,value
2023-05-03T04:39:27.290Z,87.01
2023-05-03T04:41:55.520Z,87.14
2023-05-03T04:44:22.537Z,87.37
2023-05-03T04:46:51.120Z,87.57
2023-05-03T04:49:18.412Z,87.60
2023-05-03T04:51:46.002Z,86.26
2023-05-03T04:54:12.988Z,85.38
2023-05-03T04:56:40.469Z,84.68
2023-05-03T04:59:11.894Z,84.23
2023-05-03T05:01:40.228Z,83.88
2023-05-03T05:04:07.819Z,83.53
2023-05-03T05:06:44.142Z,82.81
2023-05-03T05:09:24.913Z,81.85
2023-05-03T05:11:56.100Z,81.24
2023-05-03T05:14:26.188Z,81.23
2023-05-03T05:16:53.230Z,79.73
2023-05-03T05:19:20.792Z,77.11
2023-05-03T05:21:48.298Z,77.36
2023-05-03T05:24:16.315Z,77.21
2023-05-03T05:26:45.242Z,75.30
2023-05-03T05:29:19.564Z,72.74
2023-05-03T05:32:41.246Z,69.87
2023-05-03T05:50:58.234Z,62.35
2023-05-03T05:53:25.761Z,61.63
2023-05-03T05:56:03.222Z,61.71
2023-05-03T05:58:33.942Z,61.41
2023-05-03T06:01:02.354Z,60.37
2023-05-03T06:03:34.486Z,59.65
2023-05-03T06:06:08.590Z,59.21
2023-05-03T06:08:43.333Z,59.80
2023-05-03T06:11:23.004Z,58.71
2023-05-03T06:14:00.919Z,57.48
2023-05-03T06:16:36.941Z,57.51
2023-05-03T06:19:13.259Z,57.47
2023-05-03T06:21:45.176Z,56.87
2023-05-03T06:24:21.868Z,56.01
2023-05-03T06:26:51.814Z,56.38
2023-05-03T06:29:18.936Z,56.40
2023-05-03T06:32:04.898Z,56.54
2023-05-03T06:34:41.351Z,55.96
2023-05-03T06:37:40.257Z,53.30
2023-05-03T06:40:13.675Z,53.00
2023-05-03T06:42:41.006Z,52.80
2023-05-03T06:45:35.393Z,52.13
2023-05-03T06:48:10.263Z,51.40
2023-05-03T06:50:38.434Z,50.98
2023-05-03T06:53:05.546Z,50.59
2023-05-03T06:55:33.160Z,50.03
2023-05-03T06:58:00.201Z,50.07
2023-05-03T07:00:27.454Z,49.33
2023-05-03T07:02:56.942Z,48.82
2023-05-03T07:05:24.123Z,49.17
2023-05-03T07:07:51.095Z,48.74
2023-05-03T07:10:20.459Z,48.42
2023-05-03T07:13:26.953Z,48.72
2023-05-03T07:16:03.834Z,48.60
2023-05-03T07:18:30.899Z,47.50
2023-05-03T07:20:59.991Z,46.58
2023-05-03T07:23:27.040Z,46.64
2023-05-03T07:26:04.745Z,46.07
2023-05-03T07:28:33.356Z,45.54
2023-05-03T07:31:00.884Z,44.49
2023-05-03T07:33:27.911Z,45.14
2023-05-03T07:35:54.893Z,43.92
2023-05-03T07:38:22.290Z,43.21
2023-05-03T07:40:55.160Z,42.41
2023-05-03T07:43:23.999Z,41.79
2023-05-03T07:45:51.799Z,42.04
2023-05-03T07:48:18.999Z,41.64
2023-05-03T07:50:47.027Z,42.08
2023-05-03T07:53:14.292Z,40.04
2023-05-03T07:55:47.905Z,40.82
2023-05-03T07:58:15.634Z,40.75
2023-05-03T08:01:06.942Z,40.52
2023-05-03T08:03:43.334Z,39.63
2023-05-03T08:07:19.100Z,38.16
2023-05-03T08:11:25.176Z,37.56
2023-05-03T08:14:25.896Z,37.84
2023-05-03T08:17:30.224Z,37.56
2023-05-03T08:20:16.883Z,37.56
2023-05-03T08:22:45.370Z,37.74
2023-05-03T08:25:12.571Z,37.29
2023-05-03T08:27:46.887Z,36.80
2023-05-03T08:30:14.352Z,37.52
2023-05-03T08:32:43.906Z,36.39
2023-05-03T08:35:16.302Z,37.16
2023-05-03T08:37:46.865Z,36.99
2023-05-03T08:40:18.106Z,36.92
2023-05-03T08:42:45.806Z,36.16
2023-05-03T08:45:26.836Z,35.69
2023-05-03T08:47:57.941Z,35.92
2023-05-03T08:50:25.567Z,35.13
2023-05-03T08:52:52.588Z,34.70
2023-05-03T08:55:20.091Z,34.63
2023-05-03T08:57:47.023Z,34.45
2023-05-03T09:00:14.504Z,34.52
2023-05-03T09:02:41.645Z,34.55
2023-05-03T09:05:15.651Z,35.20
2023-05-03T09:08:07.089Z,36.07
2023-05-03T09:10:36.957Z,35.03
2023-05-03T09:13:04.058Z,35.30
2023-05-03T09:16:05.644Z,34.25
2023-05-03T09:18:32.893Z,34.53
2023-05-03T09:21:00.001Z,34.77
2023-05-03T09:23:28.790Z,35.39
2023-05-03T09:25:56.135Z,34.48
2023-05-03T09:28:23.295Z,33.76
2023-05-03T09:31:04.571Z,34.43
2023-05-03T09:33:31.958Z,34.17
2023-05-03T09:35:59.822Z,34.77
2023-05-03T09:38:47.158Z,34.68
2023-05-03T09:42:17.981Z,34.23
2023-05-03T09:49:28.072Z,31.98
2023-05-03T10:00:03.658Z,34.01
2023-05-03T10:02:45.396Z,33.93
2023-05-03T10:05:24.789Z,33.48
2023-05-03T10:07:52.097Z,32.46
2023-05-03T10:10:19.284Z,33.72
2023-05-03T10:12:47.000Z,35.03
2023-05-03T10:15:14.111Z,33.47
2023-05-03T10:17:46.941Z,33.58
2023-05-03T10:20:37.400Z,32.50
2023-05-03T10:23:08.042Z,32.41
2023-05-03T10:25:36.116Z,33.57
2023-05-03T10:28:07.305Z,34.15
2023-05-03T10:30:35.424Z,33.82
2023-05-03T10:33:11.887Z,31.49
2023-05-03T10:36:00.600Z,30.83
2023-05-03T10:38:28.799Z,29.56
2023-05-03T10:40:56.423Z,30.38
2023-05-03T10:43:32.535Z,29.41
2023-05-03T10:46:03.673Z,29.70
2023-05-03T10:48:34.605Z,29.53
2023-05-03T10:51:39.776Z,29.79
2023-05-03T10:54:07.646Z,28.43
2023-05-03T10:56:34.597Z,27.81
2023-05-03T10:59:01.701Z,27.81
2023-05-03T11:01:28.673Z,27.59
2023-05-03T11:04:08.522Z,27.90
2023-05-03T11:06:37.042Z,27.51
2023-05-03T11:09:06.615Z,28.11
2023-05-03T11:11:34.551Z,27.08
2023-05-03T11:14:01.572Z,26.98
2023-05-03T11:16:28.726Z,27.34
2023-05-03T11:18:56.283Z,27.35
2023-05-03T11:21:23.381Z,28.04
2023-05-03T11:23:50.299Z,27.78
2023-05-03T11:26:17.698Z,27.82
2023-05-03T11:28:45.278Z,28.15
2023-05-03T11:31:13.176Z,28.38
2023-05-03T11:33:40.175Z,29.33
2023-05-03T11:36:08.435Z,29.69
2023-05-03T11:38:36.620Z,28.30
2023-05-03T11:41:14.413Z,29.51
2023-05-03T11:43:42.888Z,29.16
2023-05-03T11:46:10.052Z,29.25
2023-05-03T11:48:37.718Z,29.84
2023-05-03T11:51:09.512Z,30.30
2023-05-03T11:53:36.918Z,30.07
2023-05-03T11:56:03.943Z,30.05
2023-05-03T11:58:30.882Z,30.10
2023-05-03T12:00:57.827Z,30.29
2023-05-03T12:03:36.159Z,30.53
2023-05-03T12:06:04.754Z,31.31
2023-05-03T12:08:35.553Z,30.93
2023-05-03T12:11:09.446Z,30.28
2023-05-03T12:13:38.748Z,30.67
2023-05-03T12:16:12.731Z,31.15
2023-05-03T12:18:59.642Z,31.75
2023-05-03T12:21:54.943Z,30.82
2023-05-03T12:24:33.202Z,29.98
2023-05-03T12:27:02.898Z,29.74
